createdAt,value
2018-09-30T00:00:11.961Z,99.90
2018-09-30T00:02:39.525Z,99.90
2018-09-30T00:05:07.142Z,99.90
2018-09-30T00:07:34.733Z,99.90
2018-09-30T00:10:02.306Z,99.90
2018-09-30T00:12:29.868Z,99.90
2018-09-30T00:14:57.420Z,99.90
2018-09-30T00:17:25.033Z,99.90
2018-09-30T00:19:52.602Z,99.90
2018-09-30T00:22:20.188Z,99.90
2018-09-30T00:24:53.344Z,99.90
2018-09-30T00:27:21.985Z,99.90
2018-09-30T00:29:49.529Z,99.90
2018-09-30T00:32:17.107Z,99.90
2018-09-30T00:34:44.661Z,99.90
2018-09-30T00:37:12.287Z,99.90
2018-09-30T00:39:39.877Z,99.90
2018-09-30T00:42:07.469Z,99.90
2018-09-30T00:44:35.005Z,99.90
2018-09-30T00:47:02.585Z,99.90
2018-09-30T00:49:30.157Z,99.90
2018-09-30T00:51:57.741Z,99.90
2018-09-30T00:54:25.840Z,99.90
2018-09-30T00:56:53.418Z,99.90
2018-09-30T00:59:20.965Z,99.90
2018-09-30T01:01:48.546Z,99.90
2018-09-30T01:04:16.077Z,99.90
2018-09-30T01:06:43.660Z,99.90
2018-09-30T01:09:13.826Z,99.90
2018-09-30T01:11:41.979Z,99.90
2018-09-30T01:14:09.782Z,99.90
2018-09-30T01:16:37.377Z,99.90
2018-09-30T01:19:05.137Z,99.90
2018-09-30T01:21:32.752Z,99.90
2018-09-30T01:24:00.311Z,99.90
2018-09-30T01:26:41.701Z,99.90
2018-09-30T01:29:09.255Z,99.90
2018-09-30T01:31:36.824Z,99.90
2018-09-30T01:34:04.377Z,99.90
2018-09-30T01:36:31.958Z,99.90
2018-09-30T01:39:00.026Z,99.90
2018-09-30T01:41:27.901Z,99.90
2018-09-30T01:43:55.529Z,99.90
2018-09-30T01:46:23.137Z,99.90
2018-09-30T01:48:50.720Z,99.90
2018-09-30T01:51:18.306Z,99.90
2018-09-30T01:53:45.893Z,99.90
2018-09-30T01:56:13.821Z,99.90
2018-09-30T01:58:41.401Z,99.90
2018-09-30T02:01:09.015Z,99.90
2018-09-30T02:03:36.589Z,99.90
2018-09-30T02:06:04.154Z,99.90
2018-09-30T02:08:32.527Z,99.90
2018-09-30T02:11:00.130Z,99.90
2018-09-30T02:13:27.689Z,99.90
2018-09-30T02:15:55.257Z,99.90
2018-09-30T02:18:22.825Z,99.90
2018-09-30T02:20:50.371Z,99.90
2018-09-30T02:23:17.933Z,99.90
2018-09-30T02:25:45.524Z,99.90
2018-09-30T02:28:13.092Z,99.90
2018-09-30T02:30:40.643Z,99.90
2018-09-30T02:33:08.225Z,99.90
2018-09-30T02:35:35.821Z,99.90
2018-09-30T02:38:03.384Z,99.90
2018-09-30T02:40:30.962Z,99.90
2018-09-30T02:43:01.229Z,99.90
2018-09-30T02:45:28.776Z,99.90
2018-09-30T02:47:56.356Z,99.90
2018-09-30T02:50:23.921Z,99.90
2018-09-30T02:52:51.521Z,99.90
2018-09-30T02:55:19.085Z,99.90
2018-09-30T02:57:46.914Z,99.90
2018-09-30T03:00:14.517Z,99.90
2018-09-30T03:02:42.074Z,99.90
2018-09-30T03:05:09.612Z,99.90
2018-09-30T03:07:42.700Z,99.90
2018-09-30T03:10:10.274Z,99.90
2018-09-30T03:12:37.857Z,99.90
2018-09-30T03:15:05.498Z,99.90
2018-09-30T03:17:33.101Z,99.90
2018-09-30T03:20:00.675Z,99.90
2018-09-30T03:22:28.261Z,99.90
2018-09-30T03:24:55.865Z,99.90
2018-09-30T03:27:23.412Z,99.90
2018-09-30T03:29:50.970Z,99.90
2018-09-30T03:32:18.574Z,99.90
2018-09-30T03:34:46.157Z,99.90
2018-09-30T03:37:13.715Z,99.90
2018-09-30T03:39:41.407Z,99.90
2018-09-30T03:42:08.857Z,99.90
2018-09-30T03:44:36.866Z,99.90
2018-09-30T03:47:04.604Z,99.90
2018-09-30T03:49:32.208Z,99.90
2018-09-30T03:51:59.793Z,99.90
2018-09-30T03:54:27.369Z,99.90
2018-09-30T03:56:55.229Z,99.90
2018-09-30T03:59:22.805Z,99.90
2018-09-30T04:01:50.401Z,99.90
2018-09-30T04:04:17.965Z,99.90
2018-09-30T04:06:45.501Z,99.90
2018-09-30T04:09:13.133Z,99.90
2018-09-30T04:11:40.699Z,99.90
2018-09-30T04:14:08.427Z,99.90
2018-09-30T04:16:36.225Z,99.90
2018-09-30T04:19:03.869Z,99.90
2018-09-30T04:21:31.429Z,99.90
2018-09-30T04:24:05.896Z,99.90
2018-09-30T04:26:33.472Z,99.90
2018-09-30T04:29:01.182Z,99.90
2018-09-30T04:31:28.753Z,99.90
2018-09-30T04:33:56.337Z,99.90
2018-09-30T04:36:23.909Z,99.90
2018-09-30T04:38:51.504Z,99.90
2018-09-30T04:41:19.278Z,99.90
2018-09-30T04:43:46.924Z,99.90
2018-09-30T04:46:14.495Z,99.90
2018-09-30T04:48:42.058Z,99.90
2018-09-30T04:51:09.657Z,99.90
2018-09-30T04:53:37.240Z,99.90
2018-09-30T04:56:04.817Z,99.90
2018-09-30T04:58:32.381Z,99.90
2018-09-30T05:01:00.634Z,99.90
2018-09-30T05:03:28.388Z,99.90
2018-09-30T05:05:57.041Z,99.90
2018-09-30T05:08:24.601Z,99.90
2018-09-30T05:10:52.172Z,99.90
2018-09-30T05:13:19.749Z,99.90
2018-09-30T05:15:47.313Z,99.90
2018-09-30T05:18:14.906Z,99.90
2018-09-30T05:20:42.473Z,99.90
2018-09-30T05:23:12.749Z,99.90
2018-09-30T05:25:41.636Z,99.90
2018-09-30T05:28:13.676Z,99.90
2018-09-30T05:30:41.801Z,99.90
2018-09-30T05:33:10.405Z,99.90
2018-09-30T05:35:45.744Z,99.90
2018-09-30T05:38:14.604Z,99.90
2018-09-30T05:40:43.019Z,99.90
2018-09-30T05:43:10.642Z,99.90
2018-09-30T05:45:38.799Z,99.90
2018-09-30T05:48:09.259Z,99.90
2018-09-30T05:50:40.662Z,99.90
2018-09-30T05:53:11.296Z,99.90
2018-09-30T05:55:38.917Z,99.90
2018-09-30T05:58:07.288Z,99.90
2018-09-30T06:00:35.308Z,99.90
2018-09-30T06:03:03.393Z,99.90
2018-09-30T06:05:31.309Z,99.90
2018-09-30T06:07:59.517Z,99.90
2018-09-30T06:10:27.473Z,99.90
2018-09-30T06:12:55.301Z,99.90
2018-09-30T06:15:23.020Z,99.90
2018-09-30T06:17:51.394Z,99.90
2018-09-30T06:20:19.020Z,99.90
2018-09-30T06:22:46.762Z,99.90
2018-09-30T06:25:14.370Z,99.90
2018-09-30T06:27:42.037Z,99.90
2018-09-30T06:30:09.636Z,99.90
2018-09-30T06:32:37.191Z,99.90
2018-09-30T06:35:04.905Z,99.90
2018-09-30T06:37:32.443Z,99.90
2018-09-30T06:39:59.994Z,99.90
2018-09-30T06:42:27.565Z,99.90
2018-09-30T06:44:56.047Z,99.90
2018-09-30T06:47:24.083Z,99.90
2018-09-30T06:49:51.663Z,99.90
2018-09-30T06:52:19.257Z,99.90
2018-09-30T06:54:48.436Z,99.90
2018-09-30T06:57:16.003Z,99.90
2018-09-30T06:59:45.749Z,99.90
2018-09-30T07:02:14.625Z,99.90
2018-09-30T07:04:43.205Z,99.90
2018-09-30T07:07:10.850Z,99.90
2018-09-30T07:09:38.641Z,99.90
2018-09-30T07:12:06.269Z,99.90
2018-09-30T07:14:33.889Z,99.90
2018-09-30T07:17:01.571Z,99.90
2018-09-30T07:19:29.058Z,99.90
2018-09-30T07:21:56.624Z,99.90
2018-09-30T07:24:24.427Z,99.90
2018-09-30T07:26:52.011Z,99.90
2018-09-30T07:29:19.529Z,99.90
2018-09-30T07:31:47.512Z,99.90
2018-09-30T07:34:15.081Z,99.90
2018-09-30T07:36:42.790Z,99.90
2018-09-30T07:39:10.933Z,99.90
2018-09-30T07:41:38.505Z,99.90
2018-09-30T07:44:06.405Z,99.90
2018-09-30T07:46:34.421Z,99.90
2018-09-30T07:49:02.605Z,99.90
2018-09-30T07:51:30.294Z,99.90
2018-09-30T07:53:58.372Z,99.90
2018-09-30T07:56:26.154Z,99.90
2018-09-30T07:58:53.753Z,99.90
2018-09-30T08:01:21.337Z,99.90
2018-09-30T08:03:53.479Z,99.90
2018-09-30T08:06:21.076Z,99.90
2018-09-30T08:08:48.637Z,99.90
2018-09-30T08:11:16.274Z,99.90
2018-09-30T08:13:44.029Z,99.90
2018-09-30T08:16:11.561Z,99.90
2018-09-30T08:18:39.225Z,99.90
2018-09-30T08:21:06.904Z,99.90
2018-09-30T08:23:35.205Z,99.90
2018-09-30T08:26:02.745Z,99.90
2018-09-30T08:28:30.296Z,99.90
2018-09-30T08:30:58.173Z,99.90
2018-09-30T08:33:25.780Z,99.90
2018-09-30T08:35:58.764Z,99.90
2018-09-30T08:38:29.061Z,99.90
2018-09-30T08:41:02.185Z,99.90
2018-09-30T08:43:30.417Z,99.90
2018-09-30T08:45:58.880Z,99.90
2018-09-30T08:48:26.735Z,99.90
2018-09-30T08:50:54.541Z,99.30
2018-09-30T08:53:22.529Z,98.80
2018-09-30T08:55:50.111Z,99.90
2018-09-30T08:58:18.281Z,96.90
2018-09-30T09:00:45.829Z,96.90
2018-09-30T09:03:13.408Z,95.70
2018-09-30T09:05:40.961Z,95.90
2018-09-30T09:08:09.417Z,96.00
2018-09-30T09:10:37.133Z,95.10
2018-09-30T09:13:04.695Z,94.40
2018-09-30T09:15:32.320Z,93.70
2018-09-30T09:18:00.305Z,93.00
2018-09-30T09:20:27.932Z,92.40
2018-09-30T09:22:55.526Z,92.20
2018-09-30T09:25:23.166Z,91.40
2018-09-30T09:27:50.745Z,90.30
2018-09-30T09:30:18.489Z,90.60
2018-09-30T09:32:46.156Z,91.10
2018-09-30T09:35:13.781Z,91.00
2018-09-30T09:37:41.526Z,91.70
2018-09-30T09:40:09.984Z,91.80
2018-09-30T09:42:38.017Z,91.70
2018-09-30T09:45:05.830Z,91.50
2018-09-30T09:47:33.480Z,90.60
2018-09-30T09:50:03.630Z,88.60
2018-09-30T09:52:31.218Z,85.30
2018-09-30T09:54:59.021Z,85.60
2018-09-30T09:57:26.576Z,84.90
2018-09-30T09:59:54.117Z,81.40
2018-09-30T10:02:21.926Z,82.20
2018-09-30T10:04:52.465Z,81.60
2018-09-30T10:07:20.153Z,82.10
2018-09-30T10:09:47.745Z,81.70
2018-09-30T10:12:15.544Z,81.50
2018-09-30T10:14:43.355Z,81.20
2018-09-30T10:17:11.287Z,80.00
2018-09-30T10:19:39.065Z,79.60
2018-09-30T10:22:07.743Z,80.50
2018-09-30T10:24:37.402Z,79.70
2018-09-30T10:27:06.347Z,79.50
2018-09-30T10:29:35.140Z,78.50
2018-09-30T10:32:03.848Z,78.10
2018-09-30T10:34:32.912Z,79.60
2018-09-30T10:37:02.355Z,76.50
2018-09-30T10:39:30.505Z,77.80
2018-09-30T10:41:58.567Z,79.70
2018-09-30T10:44:26.477Z,79.40
2018-09-30T10:46:54.960Z,76.80
2018-09-30T10:49:22.470Z,75.30
2018-09-30T10:51:50.716Z,77.30
2018-09-30T10:54:19.197Z,78.50
2018-09-30T10:56:47.351Z,77.30
2018-09-30T10:59:14.897Z,78.30
2018-09-30T11:01:42.437Z,77.20
2018-09-30T11:04:09.997Z,74.70
2018-09-30T11:06:37.657Z,75.80
2018-09-30T11:09:07.225Z,77.10
2018-09-30T11:11:34.891Z,76.30
2018-09-30T11:14:03.263Z,76.00
2018-09-30T11:16:32.858Z,75.80
2018-09-30T11:19:00.545Z,74.40
2018-09-30T11:21:28.197Z,74.30
2018-09-30T11:23:55.789Z,74.40
2018-09-30T11:26:23.431Z,74.00
2018-09-30T11:28:50.956Z,73.30
2018-09-30T11:31:18.581Z,72.30
2018-09-30T11:33:46.133Z,74.00
2018-09-30T11:36:13.722Z,72.60
2018-09-30T11:38:41.388Z,70.00
2018-09-30T11:41:08.951Z,71.50
2018-09-30T11:43:36.509Z,71.30
2018-09-30T11:46:04.050Z,70.40
2018-09-30T11:48:31.615Z,68.30
2018-09-30T11:50:59.182Z,66.60
2018-09-30T11:53:26.741Z,66.20
2018-09-30T11:55:55.197Z,67.90
2018-09-30T11:58:22.749Z,62.70
2018-09-30T12:00:50.296Z,64.20
2018-09-30T12:03:17.854Z,63.50
2018-09-30T12:05:45.411Z,63.20
2018-09-30T12:08:13.043Z,65.30
2018-09-30T12:10:41.205Z,62.60
2018-09-30T12:13:08.768Z,61.30
2018-09-30T12:15:36.293Z,62.70
2018-09-30T12:18:03.854Z,62.00
2018-09-30T12:20:31.397Z,59.10
2018-09-30T12:22:59.002Z,59.50
2018-09-30T12:25:26.606Z,57.60
2018-09-30T12:27:54.210Z,58.70
2018-09-30T12:30:21.746Z,58.60
2018-09-30T12:32:49.386Z,57.20
2018-09-30T12:35:16.970Z,58.40
2018-09-30T12:37:44.531Z,56.30
2018-09-30T12:40:12.091Z,55.80
2018-09-30T12:42:39.666Z,55.20
2018-09-30T12:45:07.275Z,56.60
2018-09-30T12:47:35.173Z,55.50
2018-09-30T12:50:02.741Z,56.20
2018-09-30T12:52:30.297Z,56.90
2018-09-30T12:54:58.596Z,55.20
2018-09-30T12:57:26.141Z,57.00
2018-09-30T12:59:53.716Z,56.10
2018-09-30T13:02:22.661Z,57.30
2018-09-30T13:04:50.240Z,54.70
2018-09-30T13:07:17.769Z,56.00
2018-09-30T13:09:45.333Z,56.50
2018-09-30T13:12:13.405Z,57.60
2018-09-30T13:14:41.417Z,56.40
2018-09-30T13:17:08.997Z,56.20
2018-09-30T13:19:36.593Z,57.70
2018-09-30T13:22:07.926Z,56.40
2018-09-30T13:24:36.656Z,55.40
2018-09-30T13:27:05.924Z,56.00
2018-09-30T13:29:34.987Z,57.00
2018-09-30T13:32:03.888Z,55.20
2018-09-30T13:34:32.422Z,54.50
2018-09-30T13:37:01.258Z,57.50
2018-09-30T13:39:29.694Z,57.30
2018-09-30T13:41:58.304Z,56.90
2018-09-30T13:44:26.782Z,54.40
2018-09-30T13:46:55.431Z,54.30
2018-09-30T13:49:24.414Z,53.00
2018-09-30T13:51:53.005Z,53.40
2018-09-30T13:54:23.088Z,54.50
2018-09-30T13:56:51.693Z,52.70
2018-09-30T13:59:20.832Z,52.30
2018-09-30T14:01:49.980Z,51.30
2018-09-30T14:04:18.317Z,50.90
2018-09-30T14:06:47.119Z,49.90
2018-09-30T14:09:16.020Z,48.50
2018-09-30T14:11:44.556Z,46.40
2018-09-30T14:14:13.215Z,45.00
2018-09-30T14:16:41.924Z,41.30
2018-09-30T14:19:09.460Z,37.70
2018-09-30T14:21:38.985Z,34.10
2018-09-30T14:24:08.160Z,31.20
2018-09-30T14:26:36.823Z,30.80
2018-09-30T14:29:05.583Z,29.50
2018-09-30T14:31:33.280Z,28.40
2018-09-30T14:34:00.981Z,27.20
2018-09-30T14:36:28.500Z,26.80
2018-09-30T14:38:56.121Z,26.30
2018-09-30T14:41:23.750Z,25.60
2018-09-30T14:43:51.274Z,25.10
2018-09-30T14:46:18.833Z,24.40
2018-09-30T14:48:46.419Z,24.30
2018-09-30T14:51:13.970Z,25.00
2018-09-30T14:53:41.494Z,25.10
2018-09-30T14:56:09.092Z,24.80
2018-09-30T14:58:36.650Z,25.60
2018-09-30T15:01:04.233Z,24.50
2018-09-30T15:03:32.458Z,25.70
2018-09-30T15:06:00.171Z,25.10
2018-09-30T15:08:27.738Z,23.90
2018-09-30T15:10:55.297Z,23.70
2018-09-30T15:13:22.905Z,24.40
2018-09-30T15:15:50.534Z,25.40
2018-09-30T15:18:18.078Z,24.70
2018-09-30T15:20:45.637Z,24.90
2018-09-30T15:23:13.620Z,24.70
2018-09-30T15:25:41.213Z,24.50
2018-09-30T15:28:08.769Z,24.40
2018-09-30T15:30:36.324Z,24.50
2018-09-30T15:33:04.041Z,25.40
2018-09-30T15:35:31.565Z,25.90
2018-09-30T15:37:59.117Z,25.40
2018-09-30T15:40:26.770Z,26.10
2018-09-30T15:42:54.317Z,27.30
2018-09-30T15:45:22.543Z,26.60
2018-09-30T15:47:53.131Z,26.50
2018-09-30T15:50:21.077Z,26.60
2018-09-30T15:52:48.797Z,26.50
2018-09-30T15:55:16.377Z,26.70
2018-09-30T15:57:44.005Z,26.20
2018-09-30T16:00:11.553Z,26.10
2018-09-30T16:02:43.504Z,26.40
2018-09-30T16:05:18.656Z,26.60
2018-09-30T16:07:46.250Z,26.60
2018-09-30T16:10:17.022Z,26.30
2018-09-30T16:12:54.334Z,26.00
2018-09-30T16:15:23.706Z,26.10
2018-09-30T16:17:52.036Z,27.10
2018-09-30T16:20:20.065Z,27.30
2018-09-30T16:22:47.706Z,26.90
2018-09-30T16:25:15.242Z,27.60
2018-09-30T16:27:46.728Z,27.60
2018-09-30T16:30:14.245Z,28.30
2018-09-30T16:32:41.788Z,28.40
2018-09-30T16:35:09.370Z,29.50
2018-09-30T16:37:36.982Z,30.90
2018-09-30T16:40:04.589Z,32.40
2018-09-30T16:42:33.911Z,36.00
2018-09-30T16:45:01.538Z,39.00
2018-09-30T16:47:29.218Z,42.40
2018-09-30T16:49:56.804Z,45.20
2018-09-30T16:52:24.506Z,48.20
2018-09-30T16:54:52.026Z,51.20
2018-09-30T16:57:19.856Z,53.00
2018-09-30T16:59:47.405Z,54.50
2018-09-30T17:02:15.025Z,57.30
2018-09-30T17:04:42.991Z,59.90
2018-09-30T17:07:11.203Z,60.80
2018-09-30T17:09:38.763Z,62.90
2018-09-30T17:12:06.413Z,64.50
2018-09-30T17:14:34.062Z,67.30
2018-09-30T17:17:03.514Z,68.40
2018-09-30T17:19:31.094Z,71.00
2018-09-30T17:21:58.669Z,73.10
2018-09-30T22:49:58.577Z,99.90
2018-09-30T22:52:26.165Z,99.90
2018-09-30T22:54:53.741Z,99.90
2018-09-30T22:57:21.867Z,99.90
2018-09-30T22:59:49.435Z,99.90
2018-09-30T23:02:17.053Z,99.90
2018-09-30T23:04:44.713Z,99.90
2018-09-30T23:07:12.405Z,99.90
2018-09-30T23:09:40.035Z,99.90
2018-09-30T23:12:07.587Z,99.90
2018-09-30T23:14:35.169Z,99.90
2018-09-30T23:17:02.781Z,99.90
2018-09-30T23:19:30.365Z,99.90
2018-09-30T23:21:57.926Z,99.90
2018-09-30T23:24:26.200Z,99.90
2018-09-30T23:26:53.725Z,99.90
2018-09-30T23:29:21.285Z,99.90
2018-09-30T23:31:48.828Z,99.90
2018-09-30T23:34:16.444Z,99.90
2018-09-30T23:36:43.982Z,99.90
2018-09-30T23:39:12.565Z,99.90
2018-09-30T23:41:41.038Z,99.90
2018-09-30T23:44:08.950Z,99.90
2018-09-30T23:46:36.480Z,99.90
2018-09-30T23:49:04.457Z,99.90
2018-09-30T23:51:32.809Z,99.90
2018-09-30T23:54:00.406Z,99.90
2018-09-30T23:56:27.925Z,99.90
2018-09-30T23:58:55.476Z,99.90
